^^
B2 Weather Station Historical Data
Daily Summary for November 14, 2018 Units:  English    Metric   Both
Daily Weekly Monthly Yearly Custom
  High: Low: Average:
Temperature: 35.5 °F 17.1 °F 25.9 °F
Dew Point: 26.0 °F 12.0 °F 19.7 °F
Humidity: 90% 66% 78%
Wind Speed: 6.9mph 0.0mph 2.5mph
Wind Gust: 5.3mph - -
Wind- - South
Pressure: 30.65 in 30.34 in -
Precipitation: 0.00 in    
Historical Graphs
 
 
Tabular Data for November 14, 2018
Time Temperature Dew Point Pressure Wind Wind Speed Wind Gust Humidity Rainfall Rate (Hourly) solar
00:04 21.1 °F 14.4 °F 30.56 in North 3.5 mph 0.9 mph 75% 0.00 in 0.00 W/m2
00:10 21.1 °F 14.4 °F 30.56 in West 3.5 mph 1.9 mph 75% 0.00 in 0.00 W/m2
00:14 21.1 °F 14.4 °F 30.56 in West 3.5 mph 2.7 mph 75% 0.00 in 0.00 W/m2
00:19 21.0 °F 14.3 °F 30.56 in WNW 2.3 mph 0.8 mph 75% 0.00 in 0.00 W/m2
00:24 20.9 °F 14.2 °F 30.56 in WNW 2.3 mph 1.0 mph 75% 0.00 in 0.00 W/m2
00:29 20.8 °F 14.1 °F 30.56 in West 3.5 mph 1.8 mph 75% 0.00 in 0.00 W/m2
00:34 20.7 °F 14.3 °F 30.56 in West 2.3 mph 1.0 mph 76% 0.00 in 0.00 W/m2
00:39 20.7 °F 14.3 °F 30.56 in North 3.5 mph 1.4 mph 76% 0.00 in 0.00 W/m2
00:44 20.6 °F 14.2 °F 30.56 in Calm     76% 0.00 in 0.00 W/m2
00:50 20.5 °F 14.1 °F 30.56 in WNW 2.3 mph 0.3 mph 76% 0.00 in 0.00 W/m2
00:54 20.4 °F 14.0 °F 30.56 in WNW 3.5 mph 1.1 mph 76% 0.00 in 0.00 W/m2
00:59 20.3 °F 13.9 °F 30.56 in North 3.5 mph 0.7 mph 76% 0.00 in 0.00 W/m2
01:04 20.3 °F 13.9 °F 30.56 in WNW 3.0 mph 1.0 mph 76% 0.00 in 0.00 W/m2
01:09 20.2 °F 13.8 °F 30.56 in West 2.3 mph 0.9 mph 76% 0.00 in 0.00 W/m2
01:14 20.1 °F 14.0 °F 30.56 in WNW 1.2 mph 0.4 mph 77% 0.00 in 0.00 W/m2
01:19 20.0 °F 13.9 °F 30.56 in WNW 2.3 mph 0.5 mph 77% 0.00 in 0.00 W/m2
01:24 19.9 °F 13.9 °F 30.56 in WNW 2.3 mph 1.1 mph 77% 0.00 in 0.00 W/m2
01:29 19.8 °F 13.8 °F 30.56 in NW 3.5 mph 1.1 mph 77% 0.00 in 0.00 W/m2
01:34 19.7 °F 13.7 °F 30.56 in NW 3.5 mph 1.0 mph 77% 0.00 in 0.00 W/m2
01:39 19.5 °F 13.8 °F 30.56 in WNW 3.5 mph 1.3 mph 78% 0.00 in 0.00 W/m2
01:44 19.5 °F 13.8 °F 30.56 in WNW 1.2 mph 1.0 mph 78% 0.00 in 0.00 W/m2
01:49 19.4 °F 13.7 °F 30.57 in North 2.0 mph 0.6 mph 78% 0.00 in 0.00 W/m2
01:54 19.4 °F 13.7 °F 30.57 in North 3.5 mph 1.7 mph 78% 0.00 in 0.00 W/m2
01:59 19.4 °F 13.7 °F 30.57 in North 3.5 mph 2.2 mph 78% 0.00 in 0.00 W/m2
02:04 19.3 °F 13.6 °F 30.57 in WNW 1.2 mph 1.5 mph 78% 0.00 in 0.00 W/m2
02:10 19.3 °F 13.6 °F 30.57 in WNW 2.3 mph 0.3 mph 78% 0.00 in 0.00 W/m2
02:14 19.2 °F 13.5 °F 30.57 in NW 3.5 mph 1.1 mph 78% 0.00 in 0.00 W/m2
02:19 19.1 °F 13.4 °F 30.57 in NW 2.3 mph 1.2 mph 78% 0.00 in 0.00 W/m2
02:24 19.0 °F 13.3 °F 30.56 in NW 2.3 mph 1.5 mph 78% 0.00 in 0.00 W/m2
02:29 18.9 °F 13.5 °F 30.56 in NW 3.5 mph 1.8 mph 79% 0.00 in 0.00 W/m2
02:34 18.9 °F 13.5 °F 30.56 in NW 3.5 mph 3.0 mph 79% 0.00 in 0.00 W/m2
02:39 19.0 °F 13.3 °F 30.56 in WNW 3.5 mph 2.0 mph 78% 0.00 in 0.00 W/m2
02:44 19.0 °F 13.3 °F 30.56 in North 3.5 mph 1.6 mph 78% 0.00 in 0.00 W/m2
02:49 19.1 °F 13.4 °F 30.56 in WNW 5.0 mph 2.2 mph 78% 0.00 in 0.00 W/m2
02:54 19.2 °F 13.2 °F 30.56 in North 4.6 mph 2.6 mph 77% 0.00 in 0.00 W/m2
02:59 19.3 °F 13.3 °F 30.56 in NNW 6.9 mph 3.0 mph 77% 0.00 in 0.00 W/m2
03:04 19.3 °F 13.3 °F 30.56 in North 3.5 mph 1.6 mph 77% 0.00 in 0.00 W/m2
03:09 19.3 °F 13.3 °F 30.56 in NNW 3.5 mph 2.2 mph 77% 0.00 in 0.00 W/m2
03:15 19.2 °F 12.9 °F 30.57 in NW 3.5 mph 1.5 mph 76% 0.00 in 0.00 W/m2
03:20 19.1 °F 13.1 °F 30.57 in NW 3.5 mph 1.9 mph 77% 0.00 in 0.00 W/m2
03:24 19.0 °F 13.0 °F 30.57 in NW 3.5 mph 2.2 mph 77% 0.00 in 0.00 W/m2
03:29 19.0 °F 13.0 °F 30.56 in North 3.5 mph 2.0 mph 77% 0.00 in 0.00 W/m2
03:34 18.9 °F 12.9 °F 30.56 in NW 3.5 mph 1.7 mph 77% 0.00 in 0.00 W/m2
03:39 18.9 °F 12.9 °F 30.57 in NW 3.5 mph 1.3 mph 77% 0.00 in 0.00 W/m2
03:44 18.8 °F 12.8 °F 30.56 in NW 3.5 mph 2.1 mph 77% 0.00 in 0.00 W/m2
03:49 18.7 °F 12.7 °F 30.56 in NW 3.5 mph 2.1 mph 77% 0.00 in 0.00 W/m2
03:54 18.7 °F 12.7 °F 30.57 in NW 5.0 mph 3.2 mph 77% 0.00 in 0.00 W/m2
03:59 18.7 °F 12.7 °F 30.57 in NW 3.5 mph 2.4 mph 77% 0.00 in 0.00 W/m2
04:04 18.7 °F 12.7 °F 30.57 in NW 3.5 mph 1.6 mph 77% 0.00 in 0.00 W/m2
04:09 18.7 °F 13.0 °F 30.57 in NW 3.0 mph 1.0 mph 78% 0.00 in 0.00 W/m2
04:14 18.6 °F 12.9 °F 30.57 in NW 2.3 mph 2.1 mph 78% 0.00 in 0.00 W/m2
04:19 18.6 °F 12.9 °F 30.57 in NW 3.5 mph 0.7 mph 78% 0.00 in 0.00 W/m2
04:24 18.6 °F 12.6 °F 30.57 in NW 2.3 mph 0.9 mph 77% 0.00 in 0.00 W/m2
04:29 18.5 °F 12.5 °F 30.57 in NW 2.3 mph 1.0 mph 77% 0.00 in 0.00 W/m2
04:34 18.5 °F 12.8 °F 30.57 in NW 2.3 mph 1.6 mph 78% 0.00 in 0.00 W/m2
04:39 18.4 °F 12.7 °F 30.57 in NW 2.3 mph 1.0 mph 78% 0.00 in 0.00 W/m2
04:44 18.3 °F 12.6 °F 30.57 in NW 3.5 mph 1.6 mph 78% 0.00 in 0.00 W/m2
04:49 18.2 °F 12.5 °F 30.57 in NNW 2.3 mph 1.0 mph 78% 0.00 in 0.00 W/m2
04:54 18.2 °F 12.5 °F 30.57 in NNW 4.0 mph 2.9 mph 78% 0.00 in 0.00 W/m2
04:59 18.1 °F 12.4 °F 30.57 in NNW 3.5 mph 2.2 mph 78% 0.00 in 0.00 W/m2
05:04 18.0 °F 12.3 °F 30.57 in NNW 3.5 mph 2.0 mph 78% 0.00 in 0.00 W/m2
05:10 17.9 °F 12.2 °F 30.58 in NNW 4.0 mph 2.7 mph 78% 0.00 in 0.00 W/m2
05:14 17.7 °F 12.3 °F 30.58 in NNW 3.5 mph 2.3 mph 79% 0.00 in 0.00 W/m2
05:19 17.6 °F 12.2 °F 30.58 in North 3.5 mph 2.2 mph 79% 0.00 in 0.00 W/m2
05:24 17.6 °F 12.2 °F 30.58 in NW 3.5 mph 1.7 mph 79% 0.00 in 0.00 W/m2
05:29 17.6 °F 12.2 °F 30.58 in NW 2.3 mph 1.5 mph 79% 0.00 in 0.00 W/m2
05:34 17.6 °F 12.2 °F 30.59 in NW 3.5 mph 1.3 mph 79% 0.00 in 0.00 W/m2
05:39 17.5 °F 12.1 °F 30.59 in NW 2.3 mph 0.4 mph 79% 0.00 in 0.00 W/m2
05:44 17.5 °F 12.1 °F 30.59 in NW 2.3 mph 1.0 mph 79% 0.00 in 0.00 W/m2
05:49 17.5 °F 12.4 °F 30.59 in NW 2.3 mph 0.8 mph 80% 0.00 in 0.00 W/m2
05:55 17.5 °F 12.1 °F 30.60 in NW 1.2 mph 0.5 mph 79% 0.00 in 0.00 W/m2
05:59 17.5 °F 12.1 °F 30.60 in NW 3.5 mph 0.8 mph 79% 0.00 in 0.00 W/m2
06:04 17.5 °F 12.1 °F 30.60 in NW 2.3 mph 0.5 mph 79% 0.00 in 0.00 W/m2
06:09 17.4 °F 12.0 °F 30.59 in NW 3.5 mph 1.1 mph 79% 0.00 in 0.00 W/m2
06:14 17.4 °F 12.0 °F 30.59 in NW 2.3 mph 0.5 mph 79% 0.00 in 0.00 W/m2
06:19 17.3 °F 12.2 °F 30.59 in NW 3.0 mph 1.7 mph 80% 0.00 in 0.00 W/m2
06:24 17.3 °F 12.2 °F 30.59 in NNW 3.5 mph 3.0 mph 80% 0.00 in 0.00 W/m2
06:30 17.3 °F 12.2 °F 30.59 in NNW 4.6 mph 2.9 mph 80% 0.00 in 0.00 W/m2
06:34 17.3 °F 12.2 °F 30.59 in NNW 4.6 mph 3.0 mph 80% 0.00 in 0.00 W/m2
06:39 17.2 °F 12.1 °F 30.60 in NNW 3.5 mph 2.7 mph 80% 0.00 in 0.00 W/m2
06:44 17.1 °F 12.0 °F 30.60 in NNW 3.5 mph 1.8 mph 80% 0.00 in 5.00 W/m2
06:49 17.1 °F 12.0 °F 30.60 in NW 3.5 mph 2.9 mph 80% 0.00 in 9.00 W/m2
06:55 17.1 °F 12.0 °F 30.60 in NNW 3.5 mph 2.5 mph 80% 0.00 in 11.00 W/m2
06:59 17.2 °F 12.4 °F 30.60 in North 4.0 mph 3.0 mph 81% 0.00 in 14.00 W/m2
07:04 17.4 °F 12.6 °F 30.60 in NNW 4.0 mph 2.9 mph 81% 0.00 in 19.00 W/m2
07:09 17.7 °F 12.9 °F 30.61 in NW 5.0 mph 4.5 mph 81% 0.00 in 28.00 W/m2
07:14 18.0 °F 12.9 °F 30.61 in NNW 2.3 mph 1.7 mph 80% 0.00 in 39.00 W/m2
07:20 18.3 °F 13.2 °F 30.61 in NNW 2.3 mph 1.0 mph 80% 0.00 in 49.00 W/m2
07:24 18.7 °F 13.6 °F 30.61 in NNW 2.3 mph 1.0 mph 80% 0.00 in 60.00 W/m2
07:29 19.0 °F 13.6 °F 30.61 in NNW 4.0 mph 3.1 mph 79% 0.00 in 74.00 W/m2
07:34 19.2 °F 13.8 °F 30.61 in NNW 4.0 mph 2.3 mph 79% 0.00 in 88.00 W/m2
07:39 19.5 °F 14.0 °F 30.61 in NNW 5.8 mph 5.3 mph 79% 0.00 in 104.00 W/m2
07:44 19.7 °F 14.2 °F 30.61 in NNW 4.6 mph 4.2 mph 79% 0.00 in 120.00 W/m2
07:49 20.0 °F 14.5 °F 30.61 in North 5.0 mph 2.8 mph 79% 0.00 in 135.00 W/m2
07:54 20.3 °F 14.5 °F 30.61 in NNW 4.6 mph 3.8 mph 78% 0.00 in 153.00 W/m2
07:59 20.7 °F 14.9 °F 30.62 in North 6.9 mph 4.1 mph 78% 0.00 in 167.00 W/m2
08:04 21.0 °F 14.9 °F 30.62 in North 5.8 mph 4.4 mph 77% 0.00 in 183.00 W/m2
08:10 21.3 °F 15.2 °F 30.63 in North 4.6 mph 3.6 mph 77% 0.00 in 200.00 W/m2
08:15 21.8 °F 16.0 °F 30.63 in North 3.5 mph 1.9 mph 78% 0.00 in 216.00 W/m2
08:19 22.3 °F 16.2 °F 30.63 in North 3.5 mph 2.9 mph 77% 0.00 in 232.00 W/m2
08:25 22.6 °F 16.2 °F 30.63 in North 4.6 mph 3.1 mph 76% 0.00 in 248.00 W/m2
08:29 23.0 °F 16.6 °F 30.63 in North 4.6 mph 3.6 mph 76% 0.00 in 260.00 W/m2
08:34 23.5 °F 16.7 °F 30.63 in NNE 4.0 mph 3.6 mph 75% 0.00 in 271.00 W/m2
08:40 23.9 °F 17.1 °F 30.63 in NNE 3.5 mph 3.1 mph 75% 0.00 in 285.00 W/m2
08:44 24.1 °F 17.0 °F 30.62 in North 4.6 mph 3.1 mph 74% 0.00 in 297.00 W/m2
08:50 24.4 °F 17.3 °F 30.62 in North 4.6 mph 3.9 mph 74% 0.00 in 309.00 W/m2
08:54 24.8 °F 17.4 °F 30.62 in NNW 5.8 mph 3.2 mph 73% 0.00 in 320.00 W/m2
08:59 25.1 °F 18.0 °F 30.62 in North 4.6 mph 3.6 mph 74% 0.00 in 332.00 W/m2
09:05 25.4 °F 17.6 °F 30.62 in NNW 4.6 mph 4.0 mph 72% 0.00 in 343.00 W/m2
09:09 25.7 °F 18.6 °F 30.62 in North 4.6 mph 2.6 mph 74% 0.00 in 352.00 W/m2
09:14 26.1 °F 18.6 °F 30.62 in NNE 4.0 mph 3.3 mph 73% 0.00 in 364.00 W/m2
09:19 26.5 °F 18.4 °F 30.62 in North 3.5 mph 2.3 mph 71% 0.00 in 376.00 W/m2
09:24 26.5 °F 18.4 °F 30.63 in NNW 3.5 mph 2.0 mph 71% 0.00 in 385.00 W/m2
09:29 26.8 °F 18.7 °F 30.63 in NNE 4.6 mph 2.9 mph 71% 0.00 in 396.00 W/m2
09:34 27.0 °F 18.2 °F 30.63 in North 4.6 mph 3.2 mph 69% 0.00 in 404.00 W/m2
09:39 27.4 °F 18.6 °F 30.64 in NNW 4.6 mph 3.0 mph 69% 0.00 in 413.00 W/m2
09:44 27.6 °F 18.4 °F 30.64 in NE 2.3 mph 0.1 mph 68% 0.00 in 420.00 W/m2
09:49 28.2 °F 19.3 °F 30.65 in Calm     69% 0.00 in 429.00 W/m2
09:54 28.8 °F 19.9 °F 30.64 in Calm     69% 0.00 in 438.00 W/m2
09:59 29.2 °F 19.6 °F 30.64 in Calm     67% 0.00 in 445.00 W/m2
10:05 29.6 °F 20.0 °F 30.64 in Calm     67% 0.00 in 452.00 W/m2
10:09 29.8 °F 20.2 °F 30.64 in Calm     67% 0.00 in 459.00 W/m2
10:14 30.0 °F 20.4 °F 30.64 in Calm     67% 0.00 in 464.00 W/m2
10:19 30.2 °F 21.6 °F 30.64 in Calm     70% 0.00 in 469.00 W/m2
10:24 30.5 °F 21.2 °F 30.65 in Calm     68% 0.00 in 476.00 W/m2
10:29 31.0 °F 22.0 °F 30.65 in Calm     69% 0.00 in 483.00 W/m2
10:34 31.7 °F 22.7 °F 30.64 in Calm     69% 0.00 in 489.00 W/m2
10:39 31.9 °F 22.5 °F 30.64 in Calm     68% 0.00 in 492.00 W/m2
10:44 31.8 °F 22.8 °F 30.65 in Calm     69% 0.00 in 494.00 W/m2
10:50 32.0 °F 23.0 °F 30.65 in Calm     69% 0.00 in 496.00 W/m2
10:54 32.1 °F 23.4 °F 30.65 in Calm     70% 0.00 in 499.00 W/m2
10:59 32.3 °F 23.6 °F 30.64 in Calm     70% 0.00 in 496.00 W/m2
11:05 32.4 °F 23.4 °F 30.64 in Calm     69% 0.00 in 510.00 W/m2
11:09 32.5 °F 23.8 °F 30.64 in Calm     70% 0.00 in 515.00 W/m2
11:14 32.8 °F 24.1 °F 30.64 in Calm     70% 0.00 in 512.00 W/m2
11:19 32.9 °F 23.8 °F 30.63 in Calm     69% 0.00 in 520.00 W/m2
11:24 33.1 °F 24.0 °F 30.63 in NNE 2.3 mph 0.9 mph 69% 0.00 in 519.00 W/m2
11:29 33.1 °F 24.0 °F 30.62 in ENE 1.0 mph 0.2 mph 69% 0.00 in 513.00 W/m2
11:34 33.1 °F 23.7 °F 30.62 in Calm     68% 0.00 in 519.00 W/m2
11:39 33.2 °F 23.8 °F 30.62 in NNE 1.2 mph   68% 0.00 in 520.00 W/m2
11:45 33.4 °F 24.0 °F 30.62 in NE 2.3 mph 0.5 mph 68% 0.00 in 519.00 W/m2
11:49 33.5 °F 24.4 °F 30.61 in Calm     69% 0.00 in 517.00 W/m2
11:54 33.5 °F 24.1 °F 30.61 in Calm     68% 0.00 in 515.00 W/m2
11:59 33.8 °F 24.7 °F 30.61 in East 2.3 mph 0.4 mph 69% 0.00 in 513.00 W/m2
12:04 34.2 °F 25.1 °F 30.60 in Calm     69% 0.00 in 513.00 W/m2
12:09 34.3 °F 24.8 °F 30.60 in East 1.2 mph   68% 0.00 in 506.00 W/m2
12:15 34.7 °F 25.9 °F 30.60 in ENE 2.3 mph 0.5 mph 70% 0.00 in 510.00 W/m2
12:19 34.7 °F 24.9 °F 30.59 in East 1.2 mph   67% 0.00 in 512.00 W/m2
12:24 34.6 °F 24.8 °F 30.59 in Calm     67% 0.00 in 504.00 W/m2
12:29 34.4 °F 24.6 °F 30.58 in ENE 2.3 mph   67% 0.00 in 485.00 W/m2
12:34 34.7 °F 24.9 °F 30.57 in NE 3.5 mph 0.6 mph 67% 0.00 in 381.00 W/m2
12:39 34.6 °F 24.4 °F 30.57 in ENE 2.0 mph 0.1 mph 66% 0.00 in 415.00 W/m2
12:44 34.5 °F 24.7 °F 30.57 in NE 5.8 mph 2.3 mph 67% 0.00 in 408.00 W/m2
12:49 34.4 °F 24.2 °F 30.57 in East 5.0 mph 1.1 mph 66% 0.00 in 287.00 W/m2
12:55 34.5 °F 25.0 °F 30.57 in NE 1.2 mph   68% 0.00 in 434.00 W/m2
12:59 34.4 °F 24.2 °F 30.57 in North 1.2 mph 0.1 mph 66% 0.00 in 271.00 W/m2
13:04 34.3 °F 24.1 °F 30.57 in Calm     66% 0.00 in 308.00 W/m2
13:09 34.2 °F 24.4 °F 30.57 in Calm     67% 0.00 in 274.00 W/m2
13:14 34.1 °F 24.3 °F 30.56 in ENE 1.2 mph   67% 0.00 in 188.00 W/m2
13:20 33.9 °F 24.1 °F 30.56 in ESE 1.2 mph 0.1 mph 67% 0.00 in 483.00 W/m2
13:24 34.6 °F 25.5 °F 30.55 in Calm     69% 0.00 in 424.00 W/m2
13:29 35.0 °F 25.5 °F 30.56 in Calm     68% 0.00 in 339.00 W/m2
13:35 35.0 °F 25.5 °F 30.55 in East 2.3 mph 0.5 mph 68% 0.00 in 439.00 W/m2
13:39 35.2 °F 25.7 °F 30.55 in East 2.3 mph 1.2 mph 68% 0.00 in 420.00 W/m2
13:44 35.5 °F 26.0 °F 30.55 in East 1.2 mph 0.4 mph 68% 0.00 in 411.00 W/m2
13:49 35.5 °F 25.3 °F 30.55 in East 3.0 mph 0.2 mph 66% 0.00 in 404.00 W/m2
13:54 35.3 °F 25.1 °F 30.55 in East 3.0 mph 1.8 mph 66% 0.00 in 327.00 W/m2
13:59 35.1 °F 24.9 °F 30.54 in East 3.5 mph 1.4 mph 66% 0.00 in 237.00 W/m2
14:04 34.6 °F 24.4 °F 30.53 in Calm     66% 0.00 in 139.00 W/m2
14:09 34.2 °F 24.7 °F 30.53 in Calm     68% 0.00 in 192.00 W/m2
14:14 34.2 °F 24.7 °F 30.53 in Calm     68% 0.00 in 387.00 W/m2
14:19 34.6 °F 25.5 °F 30.53 in ESE 2.3 mph 0.1 mph 69% 0.00 in 348.00 W/m2
14:25 34.7 °F 25.2 °F 30.52 in ENE 1.2 mph 0.2 mph 68% 0.00 in 134.00 W/m2
14:29 34.4 °F 24.9 °F 30.52 in Calm     68% 0.00 in 137.00 W/m2
14:35 34.3 °F 24.8 °F 30.53 in Calm     68% 0.00 in 246.00 W/m2
14:40 34.2 °F 24.7 °F 30.52 in Calm     68% 0.00 in 160.00 W/m2
14:44 34.3 °F 24.8 °F 30.52 in Calm     68% 0.00 in 207.00 W/m2
14:49 34.3 °F 24.8 °F 30.51 in ENE 3.5 mph 0.6 mph 68% 0.00 in 142.00 W/m2
14:54 34.1 °F 23.9 °F 30.51 in Calm     66% 0.00 in 244.00 W/m2
14:59 34.4 °F 24.9 °F 30.51 in ENE 2.3 mph 0.3 mph 68% 0.00 in 267.00 W/m2
15:04 34.7 °F 25.2 °F 30.50 in ENE 1.2 mph 0.1 mph 68% 0.00 in 213.00 W/m2
15:09 34.8 °F 25.0 °F 30.51 in East 2.3 mph 0.7 mph 67% 0.00 in 204.00 W/m2
15:15 34.7 °F 24.9 °F 30.51 in Calm     67% 0.00 in 169.00 W/m2
15:20 34.6 °F 24.8 °F 30.50 in ENE 3.5 mph 1.9 mph 67% 0.00 in 172.00 W/m2
15:24 34.5 °F 24.3 °F 30.50 in ENE 2.3 mph 0.4 mph 66% 0.00 in 160.00 W/m2
15:29 34.5 °F 24.7 °F 30.50 in ENE 2.3 mph 1.2 mph 67% 0.00 in 137.00 W/m2
15:34 34.4 °F 25.3 °F 30.49 in ENE 3.5 mph 1.2 mph 69% 0.00 in 120.00 W/m2
15:39 34.1 °F 25.0 °F 30.50 in East 2.3 mph 1.1 mph 69% 0.00 in 98.00 W/m2
15:44 33.9 °F 25.1 °F 30.50 in ENE 4.6 mph 0.5 mph 70% 0.00 in 79.00 W/m2
15:49 33.5 °F 24.8 °F 30.50 in East 2.3 mph 0.6 mph 70% 0.00 in 40.00 W/m2
15:54 33.2 °F 25.1 °F 30.50 in ENE 1.2 mph 0.6 mph 72% 0.00 in 23.00 W/m2
15:59 32.8 °F 24.8 °F 30.50 in ENE 2.3 mph 0.5 mph 72% 0.00 in 21.00 W/m2
16:05 32.5 °F 24.8 °F 30.50 in ENE 2.3 mph 0.3 mph 73% 0.00 in 18.00 W/m2
16:09 32.3 °F 24.6 °F 30.50 in ENE 2.3 mph   73% 0.00 in 16.00 W/m2
16:14 32.0 °F 24.6 °F 30.50 in Calm     74% 0.00 in 12.00 W/m2
16:19 31.6 °F 24.6 °F 30.50 in Calm     75% 0.00 in 11.00 W/m2
16:25 31.3 °F 24.6 °F 30.50 in ENE 3.5 mph 2.0 mph 76% 0.00 in 7.00 W/m2
16:29 31.1 °F 24.7 °F 30.50 in NE 4.0 mph 2.8 mph 77% 0.00 in 5.00 W/m2
16:34 30.8 °F 24.7 °F 30.50 in ENE 4.6 mph 3.3 mph 78% 0.00 in 0.00 W/m2
16:39 30.6 °F 24.9 °F 30.50 in ENE 3.5 mph 1.9 mph 79% 0.00 in 0.00 W/m2
16:44 30.4 °F 24.7 °F 30.50 in ENE 3.5 mph 1.9 mph 79% 0.00 in 0.00 W/m2
16:49 30.2 °F 24.5 °F 30.49 in ENE 5.0 mph 3.0 mph 79% 0.00 in 0.00 W/m2
16:54 29.9 °F 24.2 °F 30.49 in NE 3.5 mph 1.7 mph 79% 0.00 in 0.00 W/m2
16:59 29.7 °F 24.3 °F 30.48 in ENE 3.5 mph 2.5 mph 80% 0.00 in 0.00 W/m2
17:04 29.6 °F 24.5 °F 30.48 in NE 2.3 mph 1.8 mph 81% 0.00 in 0.00 W/m2
17:09 29.4 °F 24.3 °F 30.48 in ENE 3.5 mph 1.6 mph 81% 0.00 in 0.00 W/m2
17:14 29.2 °F 24.4 °F 30.47 in NE 3.5 mph 1.2 mph 82% 0.00 in 0.00 W/m2
17:19 29.1 °F 24.3 °F 30.47 in Calm     82% 0.00 in 0.00 W/m2
17:25 29.0 °F 24.2 °F 30.48 in Calm     82% 0.00 in 0.00 W/m2
17:29 28.9 °F 24.1 °F 30.48 in Calm     82% 0.00 in 0.00 W/m2
17:34 28.9 °F 24.1 °F 30.49 in Calm     82% 0.00 in 0.00 W/m2
17:39 28.8 °F 24.0 °F 30.49 in Calm     82% 0.00 in 0.00 W/m2
17:44 28.8 °F 24.0 °F 30.49 in NE 2.3 mph 1.4 mph 82% 0.00 in 0.00 W/m2
17:49 28.5 °F 23.7 °F 30.48 in NE 2.3 mph 0.5 mph 82% 0.00 in 0.00 W/m2
17:54 28.3 °F 23.5 °F 30.48 in NE 1.2 mph 1.0 mph 82% 0.00 in 0.00 W/m2
17:59 28.2 °F 23.4 °F 30.48 in Calm     82% 0.00 in 0.00 W/m2
18:04 28.1 °F 23.3 °F 30.48 in NE 1.0 mph 0.2 mph 82% 0.00 in 0.00 W/m2
18:09 28.1 °F 23.6 °F 30.48 in ENE 2.0 mph 1.1 mph 83% 0.00 in 0.00 W/m2
18:14 28.0 °F 23.5 °F 30.48 in ENE 3.5 mph 1.8 mph 83% 0.00 in 0.00 W/m2
18:19 28.1 °F 23.9 °F 30.48 in ENE 3.5 mph 2.4 mph 84% 0.00 in 0.00 W/m2
18:25 28.1 °F 23.9 °F 30.48 in North 2.3 mph 1.2 mph 84% 0.00 in 0.00 W/m2
18:30 28.0 °F 23.8 °F 30.48 in Calm     84% 0.00 in 0.00 W/m2
18:34 27.8 °F 23.6 °F 30.48 in NE 4.0 mph 2.7 mph 84% 0.00 in 0.00 W/m2
18:39 27.2 °F 23.0 °F 30.48 in NNE 3.5 mph 2.7 mph 84% 0.00 in 0.00 W/m2
18:44 27.0 °F 23.1 °F 30.48 in NNE 4.6 mph 3.5 mph 85% 0.00 in 0.00 W/m2
18:49 26.8 °F 23.2 °F 30.48 in NNE 4.6 mph 2.4 mph 86% 0.00 in 0.00 W/m2
18:54 26.9 °F 23.3 °F 30.48 in NE 5.0 mph 2.7 mph 86% 0.00 in 0.00 W/m2
18:59 26.9 °F 23.3 °F 30.48 in NE 3.5 mph 2.5 mph 86% 0.00 in 0.00 W/m2
19:04 26.8 °F 23.2 °F 30.48 in NE 2.3 mph 0.6 mph 86% 0.00 in 0.00 W/m2
19:09 26.8 °F 23.2 °F 30.48 in NE 2.3 mph 1.1 mph 86% 0.00 in 0.00 W/m2
19:14 26.7 °F 23.1 °F 30.49 in Calm     86% 0.00 in 0.00 W/m2
19:19 26.7 °F 23.1 °F 30.48 in NE 1.0 mph 0.8 mph 86% 0.00 in 0.00 W/m2
19:24 26.7 °F 23.4 °F 30.47 in NE 3.5 mph 2.3 mph 87% 0.00 in 0.00 W/m2
19:29 26.6 °F 23.0 °F 30.47 in NNE 2.3 mph 1.5 mph 86% 0.00 in 0.00 W/m2
19:34 26.4 °F 22.8 °F 30.47 in NNE 3.5 mph 1.6 mph 86% 0.00 in 0.00 W/m2
19:39 26.3 °F 22.7 °F 30.47 in NNE 2.3 mph 1.4 mph 86% 0.00 in 0.00 W/m2
19:44 26.2 °F 22.9 °F 30.47 in NNE 1.2 mph   87% 0.00 in 0.00 W/m2
19:50 26.2 °F 22.9 °F 30.47 in Calm     87% 0.00 in 0.00 W/m2
19:54 26.2 °F 22.9 °F 30.47 in Calm     87% 0.00 in 0.00 W/m2
19:59 26.1 °F 22.5 °F 30.46 in NNE 2.0 mph 0.7 mph 86% 0.00 in 0.00 W/m2
20:05 26.0 °F 22.7 °F 30.46 in Calm     87% 0.00 in 0.00 W/m2
20:09 26.0 °F 22.7 °F 30.46 in NNE 1.0 mph 1.0 mph 87% 0.00 in 0.00 W/m2
20:14 25.8 °F 22.2 °F 30.46 in NNE 1.2 mph   86% 0.00 in 0.00 W/m2
20:20 25.8 °F 22.5 °F 30.46 in Calm     87% 0.00 in 0.00 W/m2
20:24 25.8 °F 22.5 °F 30.46 in ENE 2.3 mph 1.5 mph 87% 0.00 in 0.00 W/m2
20:29 25.9 °F 22.6 °F 30.46 in ENE 3.5 mph 1.4 mph 87% 0.00 in 0.00 W/m2
20:34 26.0 °F 22.9 °F 30.45 in ENE 3.5 mph 2.0 mph 88% 0.00 in 0.00 W/m2
20:39 26.1 °F 22.8 °F 30.45 in ENE 3.5 mph 1.1 mph 87% 0.00 in 0.00 W/m2
20:45 26.1 °F 23.0 °F 30.45 in ENE 1.2 mph 0.1 mph 88% 0.00 in 0.00 W/m2
20:49 26.1 °F 22.8 °F 30.44 in ENE 2.0 mph 0.8 mph 87% 0.00 in 0.00 W/m2
20:54 26.0 °F 22.7 °F 30.43 in ENE 2.3 mph 1.7 mph 87% 0.00 in 0.00 W/m2
20:59 25.9 °F 22.6 °F 30.43 in ENE 1.2 mph 0.9 mph 87% 0.00 in 0.00 W/m2
21:04 25.7 °F 22.4 °F 30.42 in ENE 2.3 mph 0.4 mph 87% 0.00 in 0.00 W/m2
21:09 25.6 °F 22.3 °F 30.42 in ENE 1.2 mph 0.7 mph 87% 0.00 in 0.00 W/m2
21:14 25.4 °F 22.1 °F 30.42 in ENE 2.3 mph 0.8 mph 87% 0.00 in 0.00 W/m2
21:19 25.3 °F 22.0 °F 30.41 in ENE 3.0 mph 1.4 mph 87% 0.00 in 0.00 W/m2
21:25 25.3 °F 22.2 °F 30.42 in ENE 2.3 mph 1.4 mph 88% 0.00 in 0.00 W/m2
21:30 25.3 °F 22.2 °F 30.41 in ENE 3.5 mph 1.7 mph 88% 0.00 in 0.00 W/m2
21:34 25.5 °F 22.4 °F 30.40 in NE 4.0 mph 3.5 mph 88% 0.00 in 0.00 W/m2
21:39 25.6 °F 22.5 °F 30.40 in NE 3.5 mph 0.6 mph 88% 0.00 in 0.00 W/m2
21:45 25.6 °F 22.5 °F 30.39 in NE 5.0 mph 3.7 mph 88% 0.00 in 0.00 W/m2
21:49 25.6 °F 22.5 °F 30.40 in NE 3.5 mph 0.5 mph 88% 0.00 in 0.00 W/m2
21:54 25.6 °F 22.5 °F 30.40 in NE 3.0 mph 3.8 mph 88% 0.00 in 0.00 W/m2
21:59 25.5 °F 22.4 °F 30.39 in NE 2.3 mph 1.4 mph 88% 0.00 in 0.00 W/m2
22:04 25.4 °F 22.3 °F 30.39 in NNE 2.3 mph 2.1 mph 88% 0.00 in 0.00 W/m2
22:09 25.4 °F 22.6 °F 30.38 in NE 3.5 mph 1.4 mph 89% 0.00 in 0.00 W/m2
22:14 25.5 °F 22.7 °F 30.38 in Calm     89% 0.00 in 0.00 W/m2
22:19 25.5 °F 22.4 °F 30.39 in NE 3.5 mph 0.2 mph 88% 0.00 in 0.00 W/m2
22:24 25.5 °F 22.7 °F 30.39 in Calm     89% 0.00 in 0.00 W/m2
22:30 25.6 °F 22.5 °F 30.39 in NE 2.3 mph 1.7 mph 88% 0.00 in 0.00 W/m2
22:34 25.4 °F 22.3 °F 30.39 in Calm     88% 0.00 in 0.00 W/m2
22:39 25.4 °F 22.6 °F 30.38 in NE 2.3 mph 1.8 mph 89% 0.00 in 0.00 W/m2
22:44 25.4 °F 22.6 °F 30.38 in NNE 3.5 mph 2.5 mph 89% 0.00 in 0.00 W/m2
22:50 25.3 °F 22.5 °F 30.38 in North 1.2 mph 0.7 mph 89% 0.00 in 0.00 W/m2
22:54 25.3 °F 22.5 °F 30.38 in North 2.3 mph 0.2 mph 89% 0.00 in 0.00 W/m2
22:59 25.3 °F 22.5 °F 30.38 in Calm     89% 0.00 in 0.00 W/m2
23:04 25.4 °F 22.6 °F 30.38 in Calm     89% 0.00 in 0.00 W/m2
23:10 25.5 °F 22.7 °F 30.36 in North 2.3 mph 1.4 mph 89% 0.00 in 0.00 W/m2
23:14 25.7 °F 23.2 °F 30.36 in NNE 3.5 mph 1.1 mph 90% 0.00 in 0.00 W/m2
23:19 25.9 °F 23.4 °F 30.36 in NE 3.5 mph 1.4 mph 90% 0.00 in 0.00 W/m2
23:24 26.2 °F 23.7 °F 30.36 in NE 2.3 mph 0.8 mph 90% 0.00 in 0.00 W/m2
23:29 26.4 °F 23.9 °F 30.36 in NE 2.3 mph 0.1 mph 90% 0.00 in 0.00 W/m2
23:34 26.5 °F 24.0 °F 30.36 in NE 2.3 mph 0.1 mph 90% 0.00 in 0.00 W/m2
23:40 26.7 °F 24.2 °F 30.36 in NE 2.3 mph 1.1 mph 90% 0.00 in 0.00 W/m2
23:44 27.0 °F 24.5 °F 30.35 in NE 3.5 mph 2.2 mph 90% 0.00 in 0.00 W/m2
23:49 27.3 °F 24.8 °F 30.35 in NE 3.5 mph 2.6 mph 90% 0.00 in 0.00 W/m2
23:54 27.6 °F 25.1 °F 30.34 in North 4.0 mph 2.6 mph 90% 0.00 in 0.00 W/m2
23:59 27.6 °F 25.1 °F 30.34 in NE 4.0 mph 3.4 mph 90% 0.00 in 0.00 W/m2
Bourbonnais, Illinois, USA
Compliments of Weather Underground - 4 mb